sensor_id;sensor_type;location;lat;lon;timestamp;temperature;humidity
36594;DHT22;22603;47.900;8.146;2024-03-06T00:01:40;3.00;99.90
36594;DHT22;22603;47.900;8.146;2024-03-06T00:04:27;3.00;99.90
36594;DHT22;22603;47.900;8.146;2024-03-06T00:07:15;3.00;99.90
36594;DHT22;22603;47.900;8.146;2024-03-06T00:10:02;3.00;99.90
36594;DHT22;22603;47.900;8.146;2024-03-06T00:12:51;3.00;99.90
36594;DHT22;22603;47.900;8.146;2024-03-06T00:15:39;3.10;99.90
36594;DHT22;22603;47.900;8.146;2024-03-06T00:18:26;3.10;99.90
36594;DHT22;22603;47.900;8.146;2024-03-06T00:21:12;3.10;99.90
36594;DHT22;22603;47.900;8.146;2024-03-06T00:23:59;3.00;99.90
36594;DHT22;22603;47.900;8.146;2024-03-06T00:26:46;3.10;99.90
36594;DHT22;22603;47.900;8.146;2024-03-06T00:29:33;3.10;99.90
36594;DHT22;22603;47.900;8.146;2024-03-06T00:32:23;3.10;99.90
36594;DHT22;22603;47.900;8.146;2024-03-06T00:35:10;3.00;99.90
36594;DHT22;22603;47.900;8.146;2024-03-06T00:37:57;3.00;99.90
36594;DHT22;22603;47.900;8.146;2024-03-06T00:40:47;3.00;99.90
36594;DHT22;22603;47.900;8.146;2024-03-06T00:43:34;3.00;99.90
36594;DHT22;22603;47.900;8.146;2024-03-06T00:46:20;3.00;99.90
36594;DHT22;22603;47.900;8.146;2024-03-06T00:49:08;3.00;99.90
36594;DHT22;22603;47.900;8.146;2024-03-06T00:51:55;3.10;99.90
36594;DHT22;22603;47.900;8.146;2024-03-06T00:54:42;3.10;99.90
36594;DHT22;22603;47.900;8.146;2024-03-06T00:57:29;3.10;99.90
36594;DHT22;22603;47.900;8.146;2024-03-06T01:00:16;3.10;99.90
36594;DHT22;22603;47.900;8.146;2024-03-06T01:03:04;3.10;99.90
36594;DHT22;22603;47.900;8.146;2024-03-06T01:05:52;3.10;99.90
36594;DHT22;22603;47.900;8.146;2024-03-06T01:08:40;3.10;99.90
36594;DHT22;22603;47.900;8.146;2024-03-06T01:11:26;3.00;99.90
36594;DHT22;22603;47.900;8.146;2024-03-06T01:14:13;3.00;99.90
36594;DHT22;22603;47.900;8.146;2024-03-06T01:17:00;3.00;99.90
36594;DHT22;22603;47.900;8.146;2024-03-06T01:19:47;3.00;99.90
36594;DHT22;22603;47.900;8.146;2024-03-06T01:22:36;3.00;99.90
36594;DHT22;22603;47.900;8.146;2024-03-06T01:25:23;2.90;99.90
36594;DHT22;22603;47.900;8.146;2024-03-06T01:28:10;2.90;99.90
36594;DHT22;22603;47.900;8.146;2024-03-06T01:30:56;2.90;99.90
36594;DHT22;22603;47.900;8.146;2024-03-06T01:33:44;2.90;99.90
36594;DHT22;22603;47.900;8.146;2024-03-06T01:36:31;2.90;99.90
36594;DHT22;22603;47.900;8.146;2024-03-06T01:39:20;3.00;99.90
36594;DHT22;22603;47.900;8.146;2024-03-06T01:42:07;3.00;99.90
36594;DHT22;22603;47.900;8.146;2024-03-06T01:44:54;2.90;99.90
36594;DHT22;22603;47.900;8.146;2024-03-06T01:47:41;2.90;99.90
36594;DHT22;22603;47.900;8.146;2024-03-06T01:50:28;3.00;99.90
36594;DHT22;22603;47.900;8.146;2024-03-06T01:53:16;3.00;99.90
36594;DHT22;22603;47.900;8.146;2024-03-06T01:56:07;3.00;99.90
36594;DHT22;22603;47.900;8.146;2024-03-06T01:58:58;2.90;99.90
36594;DHT22;22603;47.900;8.146;2024-03-06T02:01:45;2.90;99.90
36594;DHT22;22603;47.900;8.146;2024-03-06T02:04:32;2.80;99.90
36594;DHT22;22603;47.900;8.146;2024-03-06T02:07:19;2.90;99.90
36594;DHT22;22603;47.900;8.146;2024-03-06T02:10:07;2.90;99.90
36594;DHT22;22603;47.900;8.146;2024-03-06T02:12:56;2.80;99.90
36594;DHT22;22603;47.900;8.146;2024-03-06T02:15:44;2.80;99.90
36594;DHT22;22603;47.900;8.146;2024-03-06T02:18:32;2.80;99.90
36594;DHT22;22603;47.900;8.146;2024-03-06T02:21:20;2.70;99.90
36594;DHT22;22603;47.900;8.146;2024-03-06T02:24:07;2.70;99.90
36594;DHT22;22603;47.900;8.146;2024-03-06T02:26:56;2.80;99.90
36594;DHT22;22603;47.900;8.146;2024-03-06T02:29:44;2.70;99.90
36594;DHT22;22603;47.900;8.146;2024-03-06T02:32:30;2.60;99.90
36594;DHT22;22603;47.900;8.146;2024-03-06T02:35:17;2.70;99.90
36594;DHT22;22603;47.900;8.146;2024-03-06T02:38:05;2.70;99.90
36594;DHT22;22603;47.900;8.146;2024-03-06T02:40:55;2.60;99.90
36594;DHT22;22603;47.900;8.146;2024-03-06T02:43:42;2.60;99.90
36594;DHT22;22603;47.900;8.146;2024-03-06T02:46:29;2.60;99.90
36594;DHT22;22603;47.900;8.146;2024-03-06T02:49:16;2.60;99.90
36594;DHT22;22603;47.900;8.146;2024-03-06T02:52:03;2.60;99.90
36594;DHT22;22603;47.900;8.146;2024-03-06T02:54:51;2.60;99.90
36594;DHT22;22603;47.900;8.146;2024-03-06T02:57:38;2.50;99.90
36594;DHT22;22603;47.900;8.146;2024-03-06T03:00:25;2.50;99.90
36594;DHT22;22603;47.900;8.146;2024-03-06T03:03:12;2.60;99.90
36594;DHT22;22603;47.900;8.146;2024-03-06T03:05:59;2.50;99.90
36594;DHT22;22603;47.900;8.146;2024-03-06T03:08:46;2.40;99.90
36594;DHT22;22603;47.900;8.146;2024-03-06T03:11:35;2.40;99.90
36594;DHT22;22603;47.900;8.146;2024-03-06T03:14:21;2.40;99.90
36594;DHT22;22603;47.900;8.146;2024-03-06T03:17:09;2.40;99.90
36594;DHT22;22603;47.900;8.146;2024-03-06T03:19:56;2.30;99.90
36594;DHT22;22603;47.900;8.146;2024-03-06T03:22:43;2.20;99.90
36594;DHT22;22603;47.900;8.146;2024-03-06T03:25:30;2.20;99.90
36594;DHT22;22603;47.900;8.146;2024-03-06T03:28:18;2.20;99.90
36594;DHT22;22603;47.900;8.146;2024-03-06T03:31:05;2.20;99.90
36594;DHT22;22603;47.900;8.146;2024-03-06T03:33:52;2.10;99.90
36594;DHT22;22603;47.900;8.146;2024-03-06T03:36:40;2.10;99.90
36594;DHT22;22603;47.900;8.146;2024-03-06T03:39:27;2.10;99.90
36594;DHT22;22603;47.900;8.146;2024-03-06T03:42:14;2.10;99.90
36594;DHT22;22603;47.900;8.146;2024-03-06T03:45:02;2.00;99.90
36594;DHT22;22603;47.900;8.146;2024-03-06T03:47:50;2.10;99.90
36594;DHT22;22603;47.900;8.146;2024-03-06T03:50:36;2.00;99.90
36594;DHT22;22603;47.900;8.146;2024-03-06T03:53:23;2.00;99.90
36594;DHT22;22603;47.900;8.146;2024-03-06T03:56:10;2.00;99.90
36594;DHT22;22603;47.900;8.146;2024-03-06T03:58:57;2.00;99.90
36594;DHT22;22603;47.900;8.146;2024-03-06T04:01:46;2.00;99.90
36594;DHT22;22603;47.900;8.146;2024-03-06T04:04:33;2.00;99.90
36594;DHT22;22603;47.900;8.146;2024-03-06T04:07:20;1.90;99.90
36594;DHT22;22603;47.900;8.146;2024-03-06T04:10:07;2.00;99.90
36594;DHT22;22603;47.900;8.146;2024-03-06T04:12:57;1.90;99.90
36594;DHT22;22603;47.900;8.146;2024-03-06T04:15:45;1.90;99.90
36594;DHT22;22603;47.900;8.146;2024-03-06T04:18:33;2.00;99.90
36594;DHT22;22603;47.900;8.146;2024-03-06T04:21:20;1.90;99.90
36594;DHT22;22603;47.900;8.146;2024-03-06T04:24:08;1.90;99.90
36594;DHT22;22603;47.900;8.146;2024-03-06T04:26:56;1.90;99.90
36594;DHT22;22603;47.900;8.146;2024-03-06T04:29:43;1.90;99.90
36594;DHT22;22603;47.900;8.146;2024-03-06T04:32:29;1.90;99.90
36594;DHT22;22603;47.900;8.146;2024-03-06T04:35:17;1.90;99.90
36594;DHT22;22603;47.900;8.146;2024-03-06T04:38:05;1.80;99.90
36594;DHT22;22603;47.900;8.146;2024-03-06T04:40:52;1.80;99.90
36594;DHT22;22603;47.900;8.146;2024-03-06T04:43:38;1.80;99.90
36594;DHT22;22603;47.900;8.146;2024-03-06T04:46:26;1.90;99.90
36594;DHT22;22603;47.900;8.146;2024-03-06T04:49:12;1.80;99.90
36594;DHT22;22603;47.900;8.146;2024-03-06T04:52:00;1.80;99.90
36594;DHT22;22603;47.900;8.146;2024-03-06T04:54:48;1.80;99.90
36594;DHT22;22603;47.900;8.146;2024-03-06T04:57:35;1.80;99.90
36594;DHT22;22603;47.900;8.146;2024-03-06T05:00:23;1.70;99.90
36594;DHT22;22603;47.900;8.146;2024-03-06T05:03:10;1.70;99.90
36594;DHT22;22603;47.900;8.146;2024-03-06T05:06:14;1.70;99.90
36594;DHT22;22603;47.900;8.146;2024-03-06T05:09:20;1.80;99.90
36594;DHT22;22603;47.900;8.146;2024-03-06T05:12:25;1.80;99.90
36594;DHT22;22603;47.900;8.146;2024-03-06T05:15:29;1.90;99.90
36594;DHT22;22603;47.900;8.146;2024-03-06T05:18:34;1.90;99.90
36594;DHT22;22603;47.900;8.146;2024-03-06T05:21:39;1.80;99.90
36594;DHT22;22603;47.900;8.146;2024-03-06T05:24:45;1.80;99.90
36594;DHT22;22603;47.900;8.146;2024-03-06T05:27:49;1.90;99.90
36594;DHT22;22603;47.900;8.146;2024-03-06T05:30:54;1.90;99.90
36594;DHT22;22603;47.900;8.146;2024-03-06T05:33:58;1.90;99.90
36594;DHT22;22603;47.900;8.146;2024-03-06T05:37:04;1.90;99.90
36594;DHT22;22603;47.900;8.146;2024-03-06T05:40:12;1.90;99.90
36594;DHT22;22603;47.900;8.146;2024-03-06T05:43:16;2.00;99.90
36594;DHT22;22603;47.900;8.146;2024-03-06T05:46:21;1.90;99.90
36594;DHT22;22603;47.900;8.146;2024-03-06T05:49:26;1.90;99.90
36594;DHT22;22603;47.900;8.146;2024-03-06T05:52:31;1.90;99.90
36594;DHT22;22603;47.900;8.146;2024-03-06T05:55:36;1.80;99.90
36594;DHT22;22603;47.900;8.146;2024-03-06T05:58:41;1.70;99.90
36594;DHT22;22603;47.900;8.146;2024-03-06T06:01:27;1.70;99.90
36594;DHT22;22603;47.900;8.146;2024-03-06T06:04:14;1.80;99.90
36594;DHT22;22603;47.900;8.146;2024-03-06T06:07:02;1.80;99.90
36594;DHT22;22603;47.900;8.146;2024-03-06T06:09:49;1.80;99.90
36594;DHT22;22603;47.900;8.146;2024-03-06T06:12:38;1.80;99.90
36594;DHT22;22603;47.900;8.146;2024-03-06T06:15:25;1.80;99.90
36594;DHT22;22603;47.900;8.146;2024-03-06T06:18:11;1.80;99.90
36594;DHT22;22603;47.900;8.146;2024-03-06T06:20:58;1.80;99.90
36594;DHT22;22603;47.900;8.146;2024-03-06T06:23:45;1.80;99.90
36594;DHT22;22603;47.900;8.146;2024-03-06T06:26:32;1.80;99.90
36594;DHT22;22603;47.900;8.146;2024-03-06T06:29:20;1.80;99.90
36594;DHT22;22603;47.900;8.146;2024-03-06T06:32:06;1.70;99.90
36594;DHT22;22603;47.900;8.146;2024-03-06T06:34:55;1.70;99.90
36594;DHT22;22603;47.900;8.146;2024-03-06T06:37:43;1.60;99.90
36594;DHT22;22603;47.900;8.146;2024-03-06T06:40:30;1.60;99.90
36594;DHT22;22603;47.900;8.146;2024-03-06T06:43:16;1.60;99.90
36594;DHT22;22603;47.900;8.146;2024-03-06T06:46:05;1.70;99.90
36594;DHT22;22603;47.900;8.146;2024-03-06T06:48:52;1.70;99.90
36594;DHT22;22603;47.900;8.146;2024-03-06T06:51:39;1.70;99.90
36594;DHT22;22603;47.900;8.146;2024-03-06T06:54:25;1.60;99.90
36594;DHT22;22603;47.900;8.146;2024-03-06T06:57:12;1.50;99.90
36594;DHT22;22603;47.900;8.146;2024-03-06T06:59:59;1.50;99.90
36594;DHT22;22603;47.900;8.146;2024-03-06T07:02:47;1.50;99.90
36594;DHT22;22603;47.900;8.146;2024-03-06T07:05:34;1.50;99.90
36594;DHT22;22603;47.900;8.146;2024-03-06T07:08:20;1.60;99.90
36594;DHT22;22603;47.900;8.146;2024-03-06T07:11:08;1.60;99.90
36594;DHT22;22603;47.900;8.146;2024-03-06T07:13:56;1.60;99.90
36594;DHT22;22603;47.900;8.146;2024-03-06T07:16:44;1.60;99.90
36594;DHT22;22603;47.900;8.146;2024-03-06T07:19:32;1.60;99.90
36594;DHT22;22603;47.900;8.146;2024-03-06T07:22:19;1.70;99.90
36594;DHT22;22603;47.900;8.146;2024-03-06T07:25:06;1.80;99.90
36594;DHT22;22603;47.900;8.146;2024-03-06T07:27:53;1.80;99.90
36594;DHT22;22603;47.900;8.146;2024-03-06T07:30:41;1.80;99.90
36594;DHT22;22603;47.900;8.146;2024-03-06T07:33:27;1.90;99.90
36594;DHT22;22603;47.900;8.146;2024-03-06T07:36:15;2.00;99.90
36594;DHT22;22603;47.900;8.146;2024-03-06T07:39:03;2.10;99.90
36594;DHT22;22603;47.900;8.146;2024-03-06T07:41:50;2.10;99.90
36594;DHT22;22603;47.900;8.146;2024-03-06T07:44:36;2.10;99.90
36594;DHT22;22603;47.900;8.146;2024-03-06T07:47:23;2.10;99.90
36594;DHT22;22603;47.900;8.146;2024-03-06T07:50:10;2.00;99.90
36594;DHT22;22603;47.900;8.146;2024-03-06T07:52:59;2.10;99.90
36594;DHT22;22603;47.900;8.146;2024-03-06T07:55:46;2.10;99.90
36594;DHT22;22603;47.900;8.146;2024-03-06T07:58:33;2.10;99.90
36594;DHT22;22603;47.900;8.146;2024-03-06T08:01:20;2.20;99.90
36594;DHT22;22603;47.900;8.146;2024-03-06T08:04:07;2.10;99.90
36594;DHT22;22603;47.900;8.146;2024-03-06T08:06:53;2.20;99.90
36594;DHT22;22603;47.900;8.146;2024-03-06T08:09:42;2.10;99.90
36594;DHT22;22603;47.900;8.146;2024-03-06T08:12:29;2.00;99.90
36594;DHT22;22603;47.900;8.146;2024-03-06T08:15:15;2.10;99.90
36594;DHT22;22603;47.900;8.146;2024-03-06T08:18:02;2.10;99.90
36594;DHT22;22603;47.900;8.146;2024-03-06T08:20:50;2.20;99.90
36594;DHT22;22603;47.900;8.146;2024-03-06T08:23:38;2.10;99.90
36594;DHT22;22603;47.900;8.146;2024-03-06T08:26:27;2.10;99.90
36594;DHT22;22603;47.900;8.146;2024-03-06T08:29:14;2.00;99.90
36594;DHT22;22603;47.900;8.146;2024-03-06T08:32:00;2.10;99.90
36594;DHT22;22603;47.900;8.146;2024-03-06T08:34:48;2.20;99.90
36594;DHT22;22603;47.900;8.146;2024-03-06T08:37:35;2.20;99.90
36594;DHT22;22603;47.900;8.146;2024-03-06T08:40:21;2.10;99.90
36594;DHT22;22603;47.900;8.146;2024-03-06T08:43:10;2.30;99.90
36594;DHT22;22603;47.900;8.146;2024-03-06T08:45:58;2.40;99.90
36594;DHT22;22603;47.900;8.146;2024-03-06T08:48:44;2.40;99.90
36594;DHT22;22603;47.900;8.146;2024-03-06T08:51:31;2.40;99.90
36594;DHT22;22603;47.900;8.146;2024-03-06T08:54:18;2.40;99.90
36594;DHT22;22603;47.900;8.146;2024-03-06T08:57:04;2.50;99.90
36594;DHT22;22603;47.900;8.146;2024-03-06T08:59:52;2.50;99.90
36594;DHT22;22603;47.900;8.146;2024-03-06T09:02:40;2.60;99.90
36594;DHT22;22603;47.900;8.146;2024-03-06T09:05:28;2.60;99.90
36594;DHT22;22603;47.900;8.146;2024-03-06T09:08:15;2.70;99.90
36594;DHT22;22603;47.900;8.146;2024-03-06T09:11:02;2.90;99.90
36594;DHT22;22603;47.900;8.146;2024-03-06T09:13:49;2.90;99.90
36594;DHT22;22603;47.900;8.146;2024-03-06T09:16:37;2.90;99.90
36594;DHT22;22603;47.900;8.146;2024-03-06T09:19:24;2.90;99.90
36594;DHT22;22603;47.900;8.146;2024-03-06T09:22:10;3.00;99.90
36594;DHT22;22603;47.900;8.146;2024-03-06T09:24:57;3.10;99.90
36594;DHT22;22603;47.900;8.146;2024-03-06T09:27:44;3.20;99.90
36594;DHT22;22603;47.900;8.146;2024-03-06T09:30:30;3.10;99.90
36594;DHT22;22603;47.900;8.146;2024-03-06T09:33:18;3.20;99.90
36594;DHT22;22603;47.900;8.146;2024-03-06T09:36:06;3.20;99.90
36594;DHT22;22603;47.900;8.146;2024-03-06T09:38:53;3.40;99.90
36594;DHT22;22603;47.900;8.146;2024-03-06T09:41:41;3.40;99.90
36594;DHT22;22603;47.900;8.146;2024-03-06T09:44:28;3.50;99.90
36594;DHT22;22603;47.900;8.146;2024-03-06T09:47:21;3.50;99.90
36594;DHT22;22603;47.900;8.146;2024-03-06T09:50:10;3.40;99.90
36594;DHT22;22603;47.900;8.146;2024-03-06T09:52:58;3.50;99.90
36594;DHT22;22603;47.900;8.146;2024-03-06T09:55:46;3.50;99.90
36594;DHT22;22603;47.900;8.146;2024-03-06T09:58:33;3.50;99.90
36594;DHT22;22603;47.900;8.146;2024-03-06T10:01:21;3.60;99.90
36594;DHT22;22603;47.900;8.146;2024-03-06T10:04:20;3.70;99.90
36594;DHT22;22603;47.900;8.146;2024-03-06T10:07:08;3.80;99.90
36594;DHT22;22603;47.900;8.146;2024-03-06T10:09:56;4.00;99.90
36594;DHT22;22603;47.900;8.146;2024-03-06T10:12:44;4.00;99.90
36594;DHT22;22603;47.900;8.146;2024-03-06T10:15:33;4.10;99.90
36594;DHT22;22603;47.900;8.146;2024-03-06T10:18:22;4.20;99.90
36594;DHT22;22603;47.900;8.146;2024-03-06T10:21:14;4.10;99.90
36594;DHT22;22603;47.900;8.146;2024-03-06T10:24:04;4.20;99.90
36594;DHT22;22603;47.900;8.146;2024-03-06T10:26:54;4.20;99.90
36594;DHT22;22603;47.900;8.146;2024-03-06T10:29:42;4.30;99.90
36594;DHT22;22603;47.900;8.146;2024-03-06T10:32:30;4.50;99.90
36594;DHT22;22603;47.900;8.146;2024-03-06T10:35:18;4.70;99.90
36594;DHT22;22603;47.900;8.146;2024-03-06T10:38:07;4.50;99.90
36594;DHT22;22603;47.900;8.146;2024-03-06T10:40:56;4.50;99.90
36594;DHT22;22603;47.900;8.146;2024-03-06T10:43:44;4.50;99.90
36594;DHT22;22603;47.900;8.146;2024-03-06T10:46:36;4.70;99.90
36594;DHT22;22603;47.900;8.146;2024-03-06T10:49:25;4.80;99.90
36594;DHT22;22603;47.900;8.146;2024-03-06T10:52:13;4.90;99.90
36594;DHT22;22603;47.900;8.146;2024-03-06T10:55:02;4.80;99.90
36594;DHT22;22603;47.900;8.146;2024-03-06T10:57:52;4.80;99.90
36594;DHT22;22603;47.900;8.146;2024-03-06T11:00:45;4.80;99.90
36594;DHT22;22603;47.900;8.146;2024-03-06T11:03:33;4.80;99.90
36594;DHT22;22603;47.900;8.146;2024-03-06T11:06:21;5.00;99.90
36594;DHT22;22603;47.900;8.146;2024-03-06T11:09:08;5.20;99.90
36594;DHT22;22603;47.900;8.146;2024-03-06T11:12:01;5.20;99.90
36594;DHT22;22603;47.900;8.146;2024-03-06T11:14:50;5.30;99.90
36594;DHT22;22603;47.900;8.146;2024-03-06T11:17:38;5.20;99.90
36594;DHT22;22603;47.900;8.146;2024-03-06T11:20:25;5.00;99.90
36594;DHT22;22603;47.900;8.146;2024-03-06T11:23:19;5.00;99.90
36594;DHT22;22603;47.900;8.146;2024-03-06T11:26:07;4.80;99.90
36594;DHT22;22603;47.900;8.146;2024-03-06T11:28:58;4.90;99.90
36594;DHT22;22603;47.900;8.146;2024-03-06T11:32:06;4.80;99.90
36594;DHT22;22603;47.900;8.146;2024-03-06T11:34:55;5.00;99.90
36594;DHT22;22603;47.900;8.146;2024-03-06T11:37:46;5.10;99.90
36594;DHT22;22603;47.900;8.146;2024-03-06T11:40:43;5.30;99.90
36594;DHT22;22603;47.900;8.146;2024-03-06T11:43:30;5.20;99.90
36594;DHT22;22603;47.900;8.146;2024-03-06T11:46:18;5.30;99.90
36594;DHT22;22603;47.900;8.146;2024-03-06T11:49:15;5.40;99.90
36594;DHT22;22603;47.900;8.146;2024-03-06T11:52:04;5.30;99.90
36594;DHT22;22603;47.900;8.146;2024-03-06T11:54:52;5.30;99.90
36594;DHT22;22603;47.900;8.146;2024-03-06T11:57:40;5.10;99.90
36594;DHT22;22603;47.900;8.146;2024-03-06T12:00:30;4.90;99.90
36594;DHT22;22603;47.900;8.146;2024-03-06T12:03:17;4.90;99.90
36594;DHT22;22603;47.900;8.146;2024-03-06T12:06:06;5.10;99.90
36594;DHT22;22603;47.900;8.146;2024-03-06T12:08:53;5.00;99.90
36594;DHT22;22603;47.900;8.146;2024-03-06T12:11:41;5.00;99.90
36594;DHT22;22603;47.900;8.146;2024-03-06T12:14:29;5.00;99.90
36594;DHT22;22603;47.900;8.146;2024-03-06T12:17:16;4.90;99.90
36594;DHT22;22603;47.900;8.146;2024-03-06T12:20:04;4.80;99.90
36594;DHT22;22603;47.900;8.146;2024-03-06T12:22:54;4.60;99.90
36594;DHT22;22603;47.900;8.146;2024-03-06T12:25:41;4.50;99.90
36594;DHT22;22603;47.900;8.146;2024-03-06T12:28:42;4.40;99.90
36594;DHT22;22603;47.900;8.146;2024-03-06T12:31:29;4.30;99.90
36594;DHT22;22603;47.900;8.146;2024-03-06T12:34:17;4.30;99.90
36594;DHT22;22603;47.900;8.146;2024-03-06T12:37:10;4.30;99.90
36594;DHT22;22603;47.900;8.146;2024-03-06T12:39:59;4.40;99.90
36594;DHT22;22603;47.900;8.146;2024-03-06T12:42:47;4.40;99.90
36594;DHT22;22603;47.900;8.146;2024-03-06T12:45:36;4.50;99.90
36594;DHT22;22603;47.900;8.146;2024-03-06T12:48:23;4.70;99.90
36594;DHT22;22603;47.900;8.146;2024-03-06T12:51:11;4.70;99.90
36594;DHT22;22603;47.900;8.146;2024-03-06T12:53:58;4.70;99.90
36594;DHT22;22603;47.900;8.146;2024-03-06T12:56:48;4.80;99.90
36594;DHT22;22603;47.900;8.146;2024-03-06T12:59:34;5.00;99.90
36594;DHT22;22603;47.900;8.146;2024-03-06T13:02:22;4.90;99.90
36594;DHT22;22603;47.900;8.146;2024-03-06T13:05:08;4.90;99.90
36594;DHT22;22603;47.900;8.146;2024-03-06T13:07:55;5.00;99.90
36594;DHT22;22603;47.900;8.146;2024-03-06T13:10:42;5.00;99.90
36594;DHT22;22603;47.900;8.146;2024-03-06T13:13:30;5.00;99.90
36594;DHT22;22603;47.900;8.146;2024-03-06T13:16:19;5.20;99.90
36594;DHT22;22603;47.900;8.146;2024-03-06T13:19:07;5.10;99.90
36594;DHT22;22603;47.900;8.146;2024-03-06T13:21:54;5.10;99.90
36594;DHT22;22603;47.900;8.146;2024-03-06T13:24:41;4.90;99.90
36594;DHT22;22603;47.900;8.146;2024-03-06T13:27:30;4.90;99.90
36594;DHT22;22603;47.900;8.146;2024-03-06T13:30:19;4.90;99.90
36594;DHT22;22603;47.900;8.146;2024-03-06T13:33:06;4.80;99.90
36594;DHT22;22603;47.900;8.146;2024-03-06T13:35:54;4.80;99.90
36594;DHT22;22603;47.900;8.146;2024-03-06T13:38:41;4.80;99.90
36594;DHT22;22603;47.900;8.146;2024-03-06T13:41:29;4.80;99.90
36594;DHT22;22603;47.900;8.146;2024-03-06T13:44:16;4.70;99.90
36594;DHT22;22603;47.900;8.146;2024-03-06T13:47:05;4.70;99.90
36594;DHT22;22603;47.900;8.146;2024-03-06T13:49:53;4.70;99.90
36594;DHT22;22603;47.900;8.146;2024-03-06T13:52:41;4.60;99.90
36594;DHT22;22603;47.900;8.146;2024-03-06T13:55:28;4.50;99.90
36594;DHT22;22603;47.900;8.146;2024-03-06T13:58:18;4.50;99.90
36594;DHT22;22603;47.900;8.146;2024-03-06T14:01:05;4.50;99.90
36594;DHT22;22603;47.900;8.146;2024-03-06T14:03:53;4.60;99.90
36594;DHT22;22603;47.900;8.146;2024-03-06T14:06:40;4.60;99.90
36594;DHT22;22603;47.900;8.146;2024-03-06T14:09:27;4.50;99.90
36594;DHT22;22603;47.900;8.146;2024-03-06T14:12:14;4.60;99.90
36594;DHT22;22603;47.900;8.146;2024-03-06T14:15:01;4.70;99.90
36594;DHT22;22603;47.900;8.146;2024-03-06T14:17:48;4.70;99.90
36594;DHT22;22603;47.900;8.146;2024-03-06T14:20:36;4.70;99.90
36594;DHT22;22603;47.900;8.146;2024-03-06T14:23:24;4.60;99.90
36594;DHT22;22603;47.900;8.146;2024-03-06T14:26:11;4.50;99.90
36594;DHT22;22603;47.900;8.146;2024-03-06T14:28:57;4.40;99.90
36594;DHT22;22603;47.900;8.146;2024-03-06T14:31:44;4.30;99.90
36594;DHT22;22603;47.900;8.146;2024-03-06T14:34:31;4.20;99.90
36594;DHT22;22603;47.900;8.146;2024-03-06T14:37:19;4.20;99.90
36594;DHT22;22603;47.900;8.146;2024-03-06T14:40:07;4.10;99.90
36594;DHT22;22603;47.900;8.146;2024-03-06T14:42:54;4.00;99.90
36594;DHT22;22603;47.900;8.146;2024-03-06T14:45:41;4.00;99.90
36594;DHT22;22603;47.900;8.146;2024-03-06T14:48:28;3.90;99.90
36594;DHT22;22603;47.900;8.146;2024-03-06T14:51:15;3.80;99.90
36594;DHT22;22603;47.900;8.146;2024-03-06T14:54:03;3.70;99.90
36594;DHT22;22603;47.900;8.146;2024-03-06T14:56:50;3.60;99.90
36594;DHT22;22603;47.900;8.146;2024-03-06T14:59:37;3.60;99.90
36594;DHT22;22603;47.900;8.146;2024-03-06T15:02:24;3.50;99.90
36594;DHT22;22603;47.900;8.146;2024-03-06T15:05:11;3.50;99.90
36594;DHT22;22603;47.900;8.146;2024-03-06T15:07:58;3.50;99.90
36594;DHT22;22603;47.900;8.146;2024-03-06T15:10:46;3.50;99.90
36594;DHT22;22603;47.900;8.146;2024-03-06T15:13:33;3.40;99.90
36594;DHT22;22603;47.900;8.146;2024-03-06T15:16:20;3.30;99.90
36594;DHT22;22603;47.900;8.146;2024-03-06T15:19:06;3.30;99.90
36594;DHT22;22603;47.900;8.146;2024-03-06T15:21:53;3.20;99.90
36594;DHT22;22603;47.900;8.146;2024-03-06T15:24:41;3.20;99.90
36594;DHT22;22603;47.900;8.146;2024-03-06T15:27:31;3.30;99.90
36594;DHT22;22603;47.900;8.146;2024-03-06T15:30:18;3.20;99.90
36594;DHT22;22603;47.900;8.146;2024-03-06T15:33:06;3.10;99.90
36594;DHT22;22603;47.900;8.146;2024-03-06T15:35:54;3.10;99.90
36594;DHT22;22603;47.900;8.146;2024-03-06T15:38:41;3.00;99.90
36594;DHT22;22603;47.900;8.146;2024-03-06T15:41:28;3.00;99.90
36594;DHT22;22603;47.900;8.146;2024-03-06T15:44:17;3.00;99.90
36594;DHT22;22603;47.900;8.146;2024-03-06T15:47:04;2.90;99.90
36594;DHT22;22603;47.900;8.146;2024-03-06T15:49:55;2.70;99.90
36594;DHT22;22603;47.900;8.146;2024-03-06T15:52:42;2.70;99.90
36594;DHT22;22603;47.900;8.146;2024-03-06T15:55:30;2.60;99.90
36594;DHT22;22603;47.900;8.146;2024-03-06T15:58:18;2.60;99.90
36594;DHT22;22603;47.900;8.146;2024-03-06T16:01:06;2.70;99.90
36594;DHT22;22603;47.900;8.146;2024-03-06T16:03:53;2.70;99.90
36594;DHT22;22603;47.900;8.146;2024-03-06T16:06:40;2.60;99.90
36594;DHT22;22603;47.900;8.146;2024-03-06T16:09:27;2.50;99.90
36594;DHT22;22603;47.900;8.146;2024-03-06T16:12:13;2.40;99.90
36594;DHT22;22603;47.900;8.146;2024-03-06T16:15:00;2.50;99.90
36594;DHT22;22603;47.900;8.146;2024-03-06T16:17:48;2.50;99.90
36594;DHT22;22603;47.900;8.146;2024-03-06T16:20:35;2.40;99.90
36594;DHT22;22603;47.900;8.146;2024-03-06T16:23:22;2.30;99.90
36594;DHT22;22603;47.900;8.146;2024-03-06T16:26:08;2.30;99.90
36594;DHT22;22603;47.900;8.146;2024-03-06T16:28:55;2.30;99.90
36594;DHT22;22603;47.900;8.146;2024-03-06T16:31:43;2.30;99.90
36594;DHT22;22603;47.900;8.146;2024-03-06T16:34:32;2.40;99.90
36594;DHT22;22603;47.900;8.146;2024-03-06T16:37:19;2.40;99.90
36594;DHT22;22603;47.900;8.146;2024-03-06T16:40:07;2.40;99.90
36594;DHT22;22603;47.900;8.146;2024-03-06T16:42:54;2.50;99.90
36594;DHT22;22603;47.900;8.146;2024-03-06T16:45:41;2.40;99.90
36594;DHT22;22603;47.900;8.146;2024-03-06T16:48:28;2.40;99.90
36594;DHT22;22603;47.900;8.146;2024-03-06T16:51:18;2.30;99.90
36594;DHT22;22603;47.900;8.146;2024-03-06T16:54:06;2.30;99.90
36594;DHT22;22603;47.900;8.146;2024-03-06T16:56:53;2.30;99.90
36594;DHT22;22603;47.900;8.146;2024-03-06T16:59:40;2.30;99.90
36594;DHT22;22603;47.900;8.146;2024-03-06T17:02:27;2.30;99.90
36594;DHT22;22603;47.900;8.146;2024-03-06T17:05:14;2.30;99.90
36594;DHT22;22603;47.900;8.146;2024-03-06T17:08:02;2.30;99.90
36594;DHT22;22603;47.900;8.146;2024-03-06T17:10:50;2.20;99.90
36594;DHT22;22603;47.900;8.146;2024-03-06T17:13:38;2.10;99.90
36594;DHT22;22603;47.900;8.146;2024-03-06T17:16:25;2.10;99.90
36594;DHT22;22603;47.900;8.146;2024-03-06T17:19:11;2.10;99.90
36594;DHT22;22603;47.900;8.146;2024-03-06T17:21:59;2.10;99.90
36594;DHT22;22603;47.900;8.146;2024-03-06T17:24:49;2.10;99.90
36594;DHT22;22603;47.900;8.146;2024-03-06T17:27:36;2.00;99.90
36594;DHT22;22603;47.900;8.146;2024-03-06T17:30:23;2.00;99.90
36594;DHT22;22603;47.900;8.146;2024-03-06T17:33:12;2.00;99.90
36594;DHT22;22603;47.900;8.146;2024-03-06T17:36:02;1.90;99.90
36594;DHT22;22603;47.900;8.146;2024-03-06T17:38:49;1.90;99.90
36594;DHT22;22603;47.900;8.146;2024-03-06T17:41:37;1.90;99.90
36594;DHT22;22603;47.900;8.146;2024-03-06T17:44:24;1.80;99.90
36594;DHT22;22603;47.900;8.146;2024-03-06T17:47:11;1.90;99.90
36594;DHT22;22603;47.900;8.146;2024-03-06T17:49:58;1.90;99.90
36594;DHT22;22603;47.900;8.146;2024-03-06T17:52:45;1.80;99.90
36594;DHT22;22603;47.900;8.146;2024-03-06T17:55:32;1.80;99.90
36594;DHT22;22603;47.900;8.146;2024-03-06T17:58:20;1.90;99.90
36594;DHT22;22603;47.900;8.146;2024-03-06T18:01:07;1.90;99.90